Time;durP1;ratioP1;P1;durP2;ratioP2;P2;SDS_P1;SDS_P2;PMS_P1;PMS_P2;Temp;Humidity;BMP_temperature;BMP_pressure;BME280_temperature;BME280_humidity;BME280_pressure;Samples;Min_cycle;Max_cycle;Signal;HPM_P1;HPM_P2
2022/04/01 00:01:16;;;;;;;5.30;3.20;;;;;;;2.56;35.76;98832.00;106239;1270;137354;-72
2022/04/01 00:03:49;;;;;;;5.80;3.20;;;;;;;2.54;35.87;98831.02;106424;1270;108306;-72
2022/04/01 00:06:21;;;;;;;4.00;3.10;;;;;;;2.50;36.03;98830.73;106213;1270;137507;-74
2022/04/01 00:08:53;;;;;;;6.60;3.10;;;;;;;2.48;36.10;98822.04;106328;1270;97844;-74
2022/04/01 00:11:25;;;;;;;5.60;3.40;;;;;;;2.46;36.19;98825.02;106331;1270;97829;-72
2022/04/01 00:13:56;;;;;;;6.30;2.80;;;;;;;2.43;36.35;98818.72;106248;1270;137188;-73
2022/04/01 00:16:28;;;;;;;5.60;2.90;;;;;;;2.43;36.16;98820.09;106373;1270;107691;-72
2022/04/01 00:19:00;;;;;;;8.40;2.70;;;;;;;2.42;36.37;98820.80;106187;1270;137312;-72
2022/04/01 00:21:32;;;;;;;4.80;2.80;;;;;;;2.41;36.42;98819.63;106325;1270;97810;-73
2022/04/01 00:24:05;;;;;;;4.80;2.80;;;;;;;2.38;36.44;98818.66;106240;1270;137296;-73
2022/04/01 00:26:37;;;;;;;5.30;3.00;;;;;;;2.37;36.52;98816.64;107883;1270;111232;-74
2022/04/01 00:29:16;;;;;;;6.40;2.80;;;;;;;2.35;36.75;98807.06;106844;1270;109133;-73
2022/04/01 00:31:49;;;;;;;4.50;2.80;;;;;;;2.34;36.72;98808.64;106191;1270;137438;-73
2022/04/01 00:34:22;;;;;;;4.60;2.70;;;;;;;2.33;36.72;98805.55;106374;1269;98517;-72
2022/04/01 00:36:54;;;;;;;8.10;2.80;;;;;;;2.32;36.86;98805.57;106318;1270;137471;-73
2022/04/01 00:39:29;;;;;;;6.00;3.00;;;;;;;2.30;36.77;98800.30;106370;1270;110502;-72
2022/04/01 00:42:04;;;;;;;7.00;3.00;;;;;;;2.29;36.74;98799.14;106246;1270;137683;-72
2022/04/01 00:44:37;;;;;;;6.30;2.90;;;;;;;2.28;36.85;98801.38;107803;1270;108913;-72
2022/04/01 00:47:11;;;;;;;5.70;2.90;;;;;;;2.28;36.79;98798.48;107823;1270;96039;-72
2022/04/01 00:49:46;;;;;;;5.30;3.10;;;;;;;2.27;36.78;98800.38;107818;1269;137255;-74
2022/04/01 00:52:21;;;;;;;4.40;2.60;;;;;;;2.27;36.84;98800.37;106497;1270;112178;-73
2022/04/01 00:54:54;;;;;;;5.20;3.20;;;;;;;2.27;36.81;98795.92;106279;1271;138632;-73
2022/04/01 00:57:29;;;;;;;4.90;2.80;;;;;;;2.28;36.82;98801.90;107121;1270;108942;-73
2022/04/01 01:00:02;;;;;;;6.00;3.00;;;;;;;2.27;36.72;98794.55;106189;1270;138522;-72
2022/04/01 01:02:40;;;;;;;8.70;2.90;;;;;;;2.26;36.61;98798.86;107885;1270;96507;-73
2022/04/01 01:05:13;;;;;;;5.20;2.60;;;;;;;2.26;36.69;98795.95;107845;1270;112070;-73
2022/04/01 01:07:44;;;;;;;5.40;2.90;;;;;;;2.25;36.77;98791.86;107769;1270;138481;-73
2022/04/01 01:10:18;;;;;;;4.70;3.00;;;;;;;2.24;36.73;98794.29;106539;1271;106695;-72
2022/04/01 01:12:51;;;;;;;8.10;2.90;;;;;;;2.24;36.75;98789.29;107767;1268;137369;-72
2022/04/01 01:15:27;;;;;;;7.10;3.00;;;;;;;2.23;36.53;98785.73;107629;1270;96045;-73
2022/04/01 01:17:59;;;;;;;6.10;3.00;;;;;;;2.21;36.61;98784.59;106197;1270;137417;-72
2022/04/01 01:20:32;;;;;;;3.60;2.60;;;;;;;2.18;36.58;98783.11;107873;1270;108843;-73
2022/04/01 01:23:05;;;;;;;4.10;2.90;;;;;;;2.15;36.73;98787.60;107874;1270;108348;-73
2022/04/01 01:25:39;;;;;;;3.70;2.70;;;;;;;2.14;36.79;98780.76;107734;1270;137739;-72
2022/04/01 01:28:12;;;;;;;7.60;2.90;;;;;;;2.14;36.89;98775.27;106848;1271;97836;-73
2022/04/01 01:30:46;;;;;;;6.30;2.70;;;;;;;2.13;36.84;98774.43;106367;1271;137363;-74
2022/04/01 01:33:19;;;;;;;4.20;2.50;;;;;;;2.14;36.93;98772.70;106427;1271;108888;-73
2022/04/01 01:35:51;;;;;;;6.30;2.50;;;;;;;2.15;37.02;98770.96;106326;1270;109040;-74
2022/04/01 01:38:24;;;;;;;4.70;2.90;;;;;;;2.16;37.21;98773.88;106278;1271;138035;-73
2022/04/01 01:40:56;;;;;;;5.30;2.50;;;;;;;2.18;37.17;98767.84;106405;1270;97896;-73
2022/04/01 01:43:29;;;;;;;6.80;2.80;;;;;;;2.18;37.28;98769.39;106309;1271;137349;-73
2022/04/01 01:46:01;;;;;;;5.60;2.90;;;;;;;2.16;37.38;98769.94;107770;1271;108830;-72
2022/04/01 01:48:33;;;;;;;3.90;2.60;;;;;;;2.14;37.60;98767.55;107712;1270;138142;-72
2022/04/01 01:56:46;;;;;;;4.90;2.50;;;;;;;2.09;37.85;98759.95;107845;1270;112482;-73
2022/04/01 01:59:19;;;;;;;6.50;2.60;;;;;;;2.10;38.07;98760.79;106446;1271;107559;-73
2022/04/01 02:01:51;;;;;;;6.60;2.70;;;;;;;2.06;38.01;98756.09;106106;1271;137501;-73
2022/04/01 02:04:23;;;;;;;4.80;2.90;;;;;;;2.06;38.07;98750.27;106351;1271;97832;-73
2022/04/01 02:06:56;;;;;;;5.20;2.70;;;;;;;2.05;38.31;98752.34;106282;1271;137266;-73
2022/04/01 02:09:28;;;;;;;7.30;2.80;;;;;;;1.99;38.49;98751.10;106318;1271;111764;-72
2022/04/01 02:12:00;;;;;;;5.10;2.70;;;;;;;1.92;38.51;98746.61;106344;1271;108781;-72
2022/04/01 02:14:34;;;;;;;3.70;2.70;;;;;;;1.89;38.50;98750.11;107737;1270;137736;-73
2022/04/01 02:17:08;;;;;;;3.30;2.60;;;;;;;1.85;38.66;98746.60;107795;1271;96308;-73
2022/04/01 02:19:40;;;;;;;7.10;3.00;;;;;;;1.80;38.72;98743.45;107668;1271;138019;-74
2022/04/01 02:22:16;;;;;;;4.30;2.80;;;;;;;1.77;38.60;98739.02;107821;1270;111425;-73
2022/04/01 02:24:50;;;;;;;3.90;2.70;;;;;;;1.76;39.02;98743.50;106295;1271;137436;-73
2022/04/01 02:27:24;;;;;;;3.80;2.80;;;;;;;1.73;39.61;98735.02;106321;1271;109427;-72
2022/04/01 02:29:56;;;;;;;8.20;2.80;;;;;;;1.69;39.56;98730.48;107389;1270;98012;-72
2022/04/01 02:32:31;;;;;;;4.10;2.40;;;;;;;1.65;39.43;98733.31;106311;1271;138768;-72
2022/04/01 02:35:32;;;;;;;4.70;2.80;;;;;;;1.63;39.57;98732.15;106266;1271;112449;-72
2022/04/01 02:38:06;;;;;;;7.50;3.20;;;;;;;1.62;39.71;98726.52;106244;1271;137427;-71
2022/04/01 02:40:39;;;;;;;4.40;2.80;;;;;;;1.59;39.71;98728.79;106276;1271;108215;-72
2022/04/01 02:43:11;;;;;;;5.70;3.10;;;;;;;1.57;40.06;98722.84;106210;1271;137546;-72
2022/04/01 02:45:49;;;;;;;6.40;3.50;;;;;;;1.53;39.86;98719.83;106230;1271;97854;-72
2022/04/01 02:48:22;;;;;;;6.40;2.90;;;;;;;1.51;40.01;98716.63;107824;1271;112094;-73
2022/04/01 02:51:29;;;;;;;3.80;2.70;;;;;;;1.49;40.35;98718.73;107120;1270;108917;-72
2022/04/01 02:54:09;;;;;;;5.30;3.00;;;;;;;1.48;40.15;98720.98;106233;1271;108844;-71
2022/04/01 02:56:43;;;;;;;7.60;3.00;;;;;;;1.48;40.70;98714.63;106042;1271;137522;-72
2022/04/01 02:59:16;;;;;;;4.90;2.50;;;;;;;1.49;40.85;98712.40;106273;1271;97808;-72
2022/04/01 03:01:48;;;;;;;4.10;2.80;;;;;;;1.47;40.78;98710.21;106114;1271;137219;-72
2022/04/01 03:04:20;;;;;;;5.60;3.00;;;;;;;1.46;40.83;98707.31;106262;1271;108211;-72
2022/04/01 03:06:57;;;;;;;6.40;3.10;;;;;;;1.45;40.92;98708.19;106165;1271;139267;-72
2022/04/01 03:09:30;;;;;;;4.70;2.60;;;;;;;1.44;41.27;98705.48;107806;1271;96264;-73
2022/04/01 03:12:22;;;;;;;5.60;3.20;;;;;;;1.41;41.69;98708.75;107832;1271;96037;-72
2022/04/01 03:14:54;;;;;;;3.50;2.50;;;;;;;1.38;41.73;98709.34;107714;1271;137248;-73
2022/04/01 03:17:35;;;;;;;3.20;2.40;;;;;;;1.36;41.47;98703.73;107845;1271;109213;-72
2022/04/01 03:20:13;;;;;;;7.00;2.70;;;;;;;1.36;41.76;98706.30;107725;1269;137335;-71
2022/04/01 03:22:48;;;;;;;6.10;2.70;;;;;;;1.35;42.09;98700.50;107753;1271;97305;-71
2022/04/01 03:25:23;;;;;;;6.70;3.10;;;;;;;1.35;41.97;98698.28;107732;1270;137302;-72
2022/04/01 03:28:13;;;;;;;6.70;2.80;;;;;;;1.34;42.18;98695.55;107878;1271;111147;-72
2022/04/01 03:30:46;;;;;;;8.90;3.00;;;;;;;1.31;42.35;98696.66;107788;1270;107929;-73
2022/04/01 03:33:19;;;;;;;5.30;2.70;;;;;;;1.28;42.51;98699.46;107713;1271;137993;-72
2022/04/01 03:35:52;;;;;;;6.50;3.10;;;;;;;1.28;42.90;98694.85;106682;1271;97805;-72
2022/04/01 03:38:26;;;;;;;4.10;2.80;;;;;;;1.25;42.77;98695.89;106161;1271;137317;-72
2022/04/01 03:40:59;;;;;;;4.90;2.70;;;;;;;1.25;43.00;98696.08;106256;1271;112029;-72
2022/04/01 03:43:31;;;;;;;5.70;2.90;;;;;;;1.24;42.93;98694.20;106207;1271;138477;-72
2022/04/01 03:46:10;;;;;;;9.10;3.00;;;;;;;1.23;42.95;98698.84;106153;1271;108898;-72
2022/04/01 03:48:46;;;;;;;8.30;2.90;;;;;;;1.21;43.11;98697.16;106275;1271;98687;-72
2022/04/01 03:51:24;;;;;;;9.20;2.70;;;;;;;1.20;43.40;98700.27;107647;1269;137117;-73
2022/04/01 03:53:58;;;;;;;8.10;2.70;;;;;;;1.20;43.45;98698.05;107818;1268;112669;-73
2022/04/01 03:56:57;;;;;;;5.10;2.70;;;;;;;1.16;43.89;98695.39;107725;1271;137278;-73
2022/04/01 03:59:54;;;;;;;8.70;2.70;;;;;;;1.13;43.76;98697.86;107733;1271;109035;-72
2022/04/01 04:02:46;;;;;;;7.80;3.10;;;;;;;1.12;44.29;98693.60;107356;1270;137871;-72
2022/04/01 04:05:24;;;;;;;8.30;3.10;;;;;;;1.11;44.38;98699.27;106427;1271;97852;-72
2022/04/01 04:07:58;;;;;;;10.80;2.80;;;;;;;1.10;44.46;98701.85;107740;1270;137450;-73
2022/04/01 04:10:32;;;;;;;5.40;2.80;;;;;;;1.08;44.60;98700.85;107812;1270;109187;-74
2022/04/01 04:13:33;;;;;;;6.20;2.80;;;;;;;1.08;44.31;98702.23;107597;1270;137726;-73
2022/04/01 04:16:18;;;;;;;3.60;2.50;;;;;;;1.08;44.44;98700.00;107810;1271;96607;-72
2022/04/01 04:18:58;;;;;;;4.00;2.30;;;;;;;1.06;44.52;98704.30;107829;1270;95851;-73
2022/04/01 04:21:41;;;;;;;10.20;3.00;;;;;;;1.06;44.52;98708.06;107471;1271;137294;-74
2022/04/01 04:24:28;;;;;;;4.40;2.60;;;;;;;1.05;44.68;98708.77;106313;1271;109165;-73
2022/04/01 04:27:09;;;;;;;7.90;2.60;;;;;;;1.04;44.57;98711.35;106138;1270;137454;-72
2022/04/01 04:29:49;;;;;;;8.00;2.80;;;;;;;1.02;44.67;98713.62;107054;1271;97837;-73
2022/04/01 04:32:41;;;;;;;6.70;2.50;;;;;;;1.02;44.76;98706.61;107653;1271;137197;-73
2022/04/01 04:35:14;;;;;;;8.50;2.80;;;;;;;1.03;45.14;98703.67;107732;1270;111815;-74
2022/04/01 04:37:48;;;;;;;6.00;2.60;;;;;;;1.00;45.51;98704.08;106082;1270;137821;-73
2022/04/01 04:40:21;;;;;;;5.50;2.50;;;;;;;0.94;45.34;98703.52;106152;1270;109613;-73
2022/04/01 04:43:01;;;;;;;8.70;3.10;;;;;;;0.91;45.24;98703.23;106246;1269;97867;-72
2022/04/01 04:45:33;;;;;;;13.10;2.90;;;;;;;0.89;45.25;98704.61;106188;1270;137491;-73
2022/04/01 04:48:07;;;;;;;5.00;2.90;;;;;;;0.88;45.32;98703.26;106252;1270;112546;-72
2022/04/01 04:50:44;;;;;;;7.70;2.80;;;;;;;0.86;45.56;98699.52;107775;1269;138402;-73
2022/04/01 04:53:19;;;;;;;6.50;3.00;;;;;;;0.84;46.08;98710.35;107791;1271;107653;-73
2022/04/01 04:55:51;;;;;;;8.80;2.80;;;;;;;0.80;45.72;98712.31;107711;1270;138191;-73
2022/04/01 04:58:32;;;;;;;11.20;2.70;;;;;;;0.77;45.92;98724.69;107829;1269;96211;-74
2022/04/01 05:01:12;;;;;;;10.00;3.20;;;;;;;0.78;46.50;98727.75;107716;1270;111439;-73
2022/04/01 05:03:57;;;;;;;10.00;3.20;;;;;;;0.76;46.53;98726.08;107643;1271;138543;-73
2022/04/01 05:06:39;;;;;;;11.80;3.20;;;;;;;0.73;46.81;98722.17;107737;1269;108669;-74
2022/04/01 05:09:50;;;;;;;8.80;3.40;;;;;;;0.69;47.53;98727.55;107726;1267;137646;-73
2022/04/01 05:12:31;;;;;;;11.40;3.00;;;;;;;0.64;47.67;98724.90;106452;1270;97832;-74
2022/04/01 05:15:30;;;;;;;18.20;4.90;;;;;;;0.59;48.68;98721.05;107491;1271;138259;-73
2022/04/01 05:18:09;;;;;;;10.70;3.70;;;;;;;0.54;49.24;98728.83;107479;1270;108179;-73
2022/04/01 05:20:52;;;;;;;8.50;2.90;;;;;;;0.50;48.66;98722.73;107687;1270;139227;-72
2022/04/01 05:23:34;;;;;;;12.10;3.50;;;;;;;0.48;49.05;98733.20;107807;1270;96190;-73
2022/04/01 05:26:13;;;;;;;12.30;3.20;;;;;;;0.44;49.57;98729.50;107698;1270;138100;-73
2022/04/01 05:29:31;;;;;;;8.10;3.10;;;;;;;0.41;49.70;98727.17;107655;1270;112464;-74
2022/04/01 05:32:07;;;;;;;8.90;3.40;;;;;;;0.40;49.95;98726.15;106144;1271;138022;-72
2022/04/01 05:34:44;;;;;;;11.50;3.60;;;;;;;0.38;50.51;98724.30;107697;1271;109115;-73
2022/04/01 05:37:18;;;;;;;8.80;3.30;;;;;;;0.34;50.94;98720.08;106629;1271;97888;-73
2022/04/01 05:39:51;;;;;;;10.80;3.40;;;;;;;0.32;50.76;98728.98;106142;1270;137242;-73
2022/04/01 05:42:27;;;;;;;10.40;3.40;;;;;;;0.31;52.10;98729.35;106186;1270;111857;-73
2022/04/01 05:45:19;;;;;;;8.50;3.20;;;;;;;0.25;52.31;98734.58;106157;1270;138452;-73
2022/04/01 05:47:52;;;;;;;7.50;3.70;;;;;;;0.21;52.37;98735.33;107200;1270;108829;-73
2022/04/01 05:50:26;;;;;;;13.50;4.20;;;;;;;0.20;53.17;98739.63;106157;1270;137384;-73
2022/04/01 05:53:02;;;;;;;7.80;3.50;;;;;;;0.19;53.62;98735.36;106377;1270;97826;-73
2022/04/01 05:55:38;;;;;;;10.60;3.20;;;;;;;0.15;54.14;98735.73;106229;1271;138708;-73
2022/04/01 05:58:10;;;;;;;6.40;3.20;;;;;;;0.12;53.59;98731.52;107776;1270;109121;-74
2022/04/01 06:00:59;;;;;;;8.90;3.40;;;;;;;0.11;54.13;98732.04;107045;1270;108793;-73
2022/04/01 06:03:50;;;;;;;11.10;3.20;;;;;;;0.08;53.90;98734.83;106215;1269;137381;-73
2022/04/01 06:06:29;;;;;;;11.40;3.20;;;;;;;0.09;53.76;98733.61;106280;1271;97856;-73
2022/04/01 06:09:09;;;;;;;9.90;3.10;;;;;;;0.12;53.36;98724.52;107646;1270;137346;-74
2022/04/01 06:12:06;;;;;;;13.40;2.90;;;;;;;0.14;53.67;98722.59;107801;1270;108895;-74
2022/04/01 06:15:10;;;;;;;5.50;3.30;;;;;;;0.17;53.46;98725.98;107576;1269;138011;-73
2022/04/01 06:18:12;;;;;;;6.60;3.10;;;;;;;0.23;53.36;98723.84;107779;1270;96182;-73
2022/04/01 06:20:49;;;;;;;6.30;3.00;;;;;;;0.28;52.99;98723.24;107764;1268;138064;-73
2022/04/01 06:23:24;;;;;;;;;;;;;;;0.36;52.93;98721.59;107622;1270;112431;-74
2022/04/01 06:26:00;;;;;;;8.00;3.20;;;;;;;0.43;52.35;98724.91;106178;1270;123996;-74
2022/04/01 06:28:38;;;;;;;8.40;3.30;;;;;;;0.53;52.40;98725.59;106204;1270;108513;-74
2022/04/01 06:31:13;;;;;;;13.10;3.60;;;;;;;0.63;51.77;98725.77;107834;1270;96200;-73
2022/04/01 06:33:53;;;;;;;8.40;3.20;;;;;;;0.72;51.67;98725.45;107670;1271;138518;-73
2022/04/01 06:36:51;;;;;;;6.40;3.20;;;;;;;0.83;51.06;98722.18;106955;1269;112692;-73
2022/04/01 06:39:37;;;;;;;9.80;2.70;;;;;;;0.92;50.46;98719.65;107671;1271;137945;-73
2022/04/01 06:42:19;;;;;;;11.20;3.60;;;;;;;0.98;49.89;98715.77;107007;1270;109061;-73
2022/04/01 06:44:57;;;;;;;7.50;3.20;;;;;;;1.01;50.26;98713.48;107648;1270;139127;-75
2022/04/01 06:47:47;;;;;;;4.80;3.00;;;;;;;0.99;49.82;98718.30;106691;1270;97707;-73
2022/04/01 06:50:21;;;;;;;9.10;2.80;;;;;;;0.97;50.27;98716.97;106265;1270;137323;-71
2022/04/01 06:52:56;;;;;;;7.10;3.10;;;;;;;0.97;50.40;98722.61;106282;1270;109007;-71
2022/04/01 06:55:47;;;;;;;11.50;3.00;;;;;;;1.00;50.07;98719.33;106182;1270;139441;-75
2022/04/01 06:58:30;;;;;;;5.70;2.80;;;;;;;1.01;49.81;98717.07;106219;1271;97835;-74
2022/04/01 07:01:07;;;;;;;6.80;3.00;;;;;;;1.03;49.68;98716.86;106254;1270;97976;-71
2022/04/01 07:03:39;;;;;;;7.00;2.80;;;;;;;1.05;49.59;98718.19;107095;1269;137550;-73
2022/04/01 07:06:11;;;;;;;5.90;2.50;;;;;;;1.09;49.40;98716.94;107068;1270;109108;-73
2022/04/01 07:08:49;;;;;;;12.00;3.30;;;;;;;1.15;49.79;98713.05;106226;1270;137409;-74
2022/04/01 07:11:23;;;;;;;8.70;3.40;;;;;;;1.16;49.88;98716.79;106358;1270;97819;-77
2022/04/01 07:13:55;;;;;;;11.80;2.90;;;;;;;1.13;49.72;98715.82;106131;1268;137338;-74
2022/04/01 07:16:28;;;;;;;14.50;3.20;;;;;;;1.14;49.96;98714.60;106176;1270;111731;-75
2022/04/01 07:19:01;;;;;;;8.40;3.70;;;;;;;1.14;50.07;98713.23;106296;1268;108878;-74
2022/04/01 07:21:34;;;;;;;9.10;3.10;;;;;;;1.16;50.26;98712.86;107217;1270;137416;-74
2022/04/01 07:24:06;;;;;;;11.30;3.00;;;;;;;1.18;50.12;98717.61;107485;1270;96433;-73
2022/04/01 07:26:38;;;;;;;12.20;3.40;;;;;;;1.24;49.90;98713.05;107786;1270;137983;-73
2022/04/01 07:29:11;;;;;;;8.80;3.20;;;;;;;1.30;49.75;98714.15;106630;1270;112370;-72
2022/04/01 07:34:44;;;;;;;11.10;3.60;;;;;;;1.43;49.52;98710.61;106197;1270;108566;-74
2022/04/01 07:37:20;;;;;;;9.30;3.30;;;;;;;1.45;49.74;98710.92;106369;1270;97819;-74
2022/04/01 07:40:14;;;;;;;15.80;3.60;;;;;;;1.47;49.70;98710.72;106169;1270;137725;-73
2022/04/01 07:42:48;;;;;;;16.20;3.40;;;;;;;1.50;50.21;98709.96;107875;1270;113049;-74
2022/04/01 07:45:21;;;;;;;9.70;3.30;;;;;;;1.53;50.50;98710.59;107761;1269;137785;-73
2022/04/01 07:47:54;;;;;;;9.20;3.50;;;;;;;1.53;50.55;98717.27;106960;1270;107583;-73
2022/04/01 07:50:27;;;;;;;7.60;3.00;;;;;;;1.54;50.64;98718.96;106118;1270;137737;-72
2022/04/01 07:52:59;;;;;;;6.70;3.00;;;;;;;1.56;50.84;98717.73;106382;1270;98185;-73
2022/04/01 07:55:31;;;;;;;10.70;3.20;;;;;;;1.60;51.07;98715.05;106267;1270;112291;-73
2022/04/01 07:58:03;;;;;;;8.00;3.60;;;;;;;1.63;51.18;98714.51;106171;1270;138656;-74
2022/04/01 08:00:55;;;;;;;6.90;3.30;;;;;;;1.65;51.48;98715.48;106291;1270;108833;-74
2022/04/01 08:03:28;;;;;;;5.40;3.40;;;;;;;1.61;52.03;98721.38;106240;1270;137379;-73
2022/04/01 08:06:00;;;;;;;7.30;3.90;;;;;;;1.60;52.52;98720.88;106273;1270;97823;-73
2022/04/01 08:08:32;;;;;;;11.10;3.90;;;;;;;1.62;52.55;98721.38;106306;1270;138429;-74
2022/04/01 08:11:04;;;;;;;12.40;4.20;;;;;;;1.67;52.79;98722.46;106496;1270;109088;-74
2022/04/01 08:13:36;;;;;;;9.10;3.50;;;;;;;1.73;52.44;98717.02;106332;1270;108235;-73
2022/04/01 08:16:10;;;;;;;9.80;4.30;;;;;;;1.76;52.61;98706.17;106150;1270;137448;-73
2022/04/01 08:18:43;;;;;;;8.00;3.90;;;;;;;1.79;52.57;98708.33;106466;1270;97829;-73
2022/04/01 08:21:16;;;;;;;8.10;3.70;;;;;;;1.82;52.62;98719.25;106159;1270;138225;-73
2022/04/01 08:23:48;;;;;;;13.30;4.50;;;;;;;1.90;52.93;98713.92;106472;1270;108269;-74
2022/04/01 08:26:20;;;;;;;10.90;4.40;;;;;;;1.96;52.83;98712.06;106265;1270;138086;-72
2022/04/01 08:28:52;;;;;;;11.40;4.10;;;;;;;2.00;52.99;98716.46;106356;1270;97919;-74
2022/04/01 08:31:26;;;;;;;9.70;4.30;;;;;;;2.03;53.18;98718.95;106260;1270;97817;-74
2022/04/01 08:33:58;;;;;;;8.20;4.00;;;;;;;2.09;53.51;98716.42;106255;1270;137199;-73
2022/04/01 08:36:30;;;;;;;9.20;4.50;;;;;;;2.13;53.40;98712.89;106313;1270;108719;-73
2022/04/01 08:39:02;;;;;;;11.90;4.40;;;;;;;2.19;53.57;98716.55;106108;1270;137488;-72
2022/04/01 08:41:34;;;;;;;8.80;3.80;;;;;;;2.17;53.34;98711.97;107841;1270;96007;-73
2022/04/01 08:44:07;;;;;;;10.00;4.30;;;;;;;2.10;53.57;98716.04;107807;1270;96535;-73
2022/04/01 08:46:39;;;;;;;13.30;4.50;;;;;;;2.02;53.59;98727.04;107787;1270;137468;-74
2022/04/01 08:49:12;;;;;;;9.80;4.00;;;;;;;1.95;53.83;98730.60;107780;1270;106546;-73
2022/04/01 08:51:44;;;;;;;8.40;4.20;;;;;;;1.93;54.32;98731.17;107753;1269;137620;-74
2022/04/01 08:54:22;;;;;;;7.20;3.70;;;;;;;1.90;54.66;98728.66;106335;1270;97938;-74
2022/04/01 08:56:54;;;;;;;8.70;4.00;;;;;;;1.91;54.87;98727.11;106136;1268;138138;-73
2022/04/01 08:59:33;;;;;;;11.40;4.30;;;;;;;1.91;55.27;98725.73;106250;1270;111063;-75
2022/04/01 09:02:08;;;;;;;8.20;3.70;;;;;;;1.94;55.81;98734.39;106300;1270;108126;-75
2022/04/01 09:04:40;;;;;;;9.70;4.20;;;;;;;1.91;55.72;98732.08;107222;1270;137119;-73
2022/04/01 09:07:15;;;;;;;10.80;3.80;;;;;;;1.90;56.16;98726.61;106405;1270;97833;-75
2022/04/01 09:09:47;;;;;;;12.00;3.80;;;;;;;1.91;56.40;98726.59;107717;1269;138162;-75
2022/04/01 09:12:19;;;;;;;5.00;3.20;;;;;;;1.91;56.74;98726.06;106734;1270;111101;-73
2022/04/01 09:14:54;;;;;;;11.50;3.50;;;;;;;1.85;56.56;98730.15;106239;1270;138332;-73
2022/04/01 09:17:44;;;;;;;11.80;4.10;;;;;;;1.78;56.83;98725.47;106279;1270;108096;-74
2022/04/01 09:20:17;;;;;;;7.50;3.70;;;;;;;1.75;57.24;98724.16;106523;1269;96535;-75
2022/04/01 09:22:57;;;;;;;6.90;3.40;;;;;;;1.73;57.36;98729.88;106183;1270;137668;-73
2022/04/01 09:25:29;;;;;;;13.90;4.30;;;;;;;1.75;57.89;98725.73;106328;1270;114249;-74
2022/04/01 09:28:01;;;;;;;11.70;4.40;;;;;;;1.79;58.02;98723.57;107110;1270;138714;-74
2022/04/01 09:30:33;;;;;;;7.70;4.10;;;;;;;1.83;57.99;98716.66;106866;1270;106107;-73
2022/04/01 09:33:06;;;;;;;6.30;4.60;;;;;;;1.79;58.23;98722.20;106274;1270;137673;-74
2022/04/01 09:35:38;;;;;;;12.50;4.60;;;;;;;1.82;58.26;98724.91;106372;1270;97820;-74
2022/04/01 09:38:11;;;;;;;8.50;4.40;;;;;;;1.84;58.51;98720.23;106057;1270;204588;-74
2022/04/01 09:40:44;;;;;;;9.20;4.00;;;;;;;1.84;58.67;98725.55;106162;1270;137253;-74
2022/04/01 09:43:24;;;;;;;8.10;4.20;;;;;;;1.79;58.57;98715.01;106364;1270;109074;-72
2022/04/01 09:46:04;;;;;;;8.30;3.60;;;;;;;1.75;58.86;98713.39;107710;1270;138584;-73
2022/04/01 09:48:43;;;;;;;11.10;4.10;;;;;;;1.66;59.12;98714.80;106965;1270;97803;-75
2022/04/01 09:51:15;;;;;;;5.90;3.10;;;;;;;1.62;59.52;98713.84;106200;1270;138183;-74
2022/04/01 09:53:54;;;;;;;8.50;3.90;;;;;;;1.65;59.50;98712.23;106218;1270;107938;-73
2022/04/01 09:56:49;;;;;;;9.20;3.60;;;;;;;1.69;59.51;98716.44;107767;1269;137928;-73
2022/04/01 09:59:21;;;;;;;9.70;4.20;;;;;;;1.70;59.86;98719.81;107890;1269;96329;-74
2022/04/01 10:01:55;;;;;;;9.70;3.80;;;;;;;1.74;60.02;98718.70;107809;1268;96219;-74
2022/04/01 10:04:27;;;;;;;6.70;3.80;;;;;;;1.75;59.96;98718.85;107710;1270;137915;-74
2022/04/01 10:06:59;;;;;;;8.00;4.20;;;;;;;1.74;60.03;98717.84;107840;1270;107645;-75
2022/04/01 10:09:32;;;;;;;9.40;4.20;;;;;;;1.71;60.14;98721.20;107769;1270;138869;-75
2022/04/01 10:12:27;;;;;;;6.70;3.80;;;;;;;1.72;60.44;98717.90;106292;1270;97935;-74
2022/04/01 10:15:02;;;;;;;7.80;4.40;;;;;;;1.75;60.67;98715.09;106163;1270;138210;-73
2022/04/01 10:17:56;;;;;;;9.40;4.20;;;;;;;1.77;60.57;98713.66;107863;1270;111616;-74
2022/04/01 10:20:33;;;;;;;11.10;4.50;;;;;;;1.79;60.80;98714.15;107654;1269;138617;-73
2022/04/01 10:23:09;;;;;;;8.30;4.60;;;;;;;1.76;60.77;98709.93;107713;1270;107819;-74
2022/04/01 10:25:48;;;;;;;6.60;3.90;;;;;;;1.76;60.93;98713.19;106310;1270;97805;-74
2022/04/01 10:28:22;;;;;;;10.90;4.10;;;;;;;1.73;61.01;98710.16;107770;1270;137963;-73
2022/04/01 10:30:55;;;;;;;7.20;4.00;;;;;;;1.69;61.25;98714.89;107381;1270;112782;-73
2022/04/01 10:33:33;;;;;;;7.50;3.50;;;;;;;1.65;61.36;98709.32;106704;1270;139286;-74
2022/04/01 10:36:31;;;;;;;10.00;3.60;;;;;;;1.64;61.33;98709.69;106222;1270;107415;-73
2022/04/01 10:39:05;;;;;;;;;;;;;;;1.66;61.62;98712.38;106042;1270;137678;-73
2022/04/01 10:41:38;;;;;;;8.90;4.20;;;;;;;1.67;61.74;98708.75;106279;1270;97816;-73
2022/04/01 10:44:10;;;;;;;12.00;4.70;;;;;;;1.67;61.74;98711.66;106188;1270;112049;-74
2022/04/01 10:46:58;;;;;;;13.20;4.60;;;;;;;1.74;62.37;98712.20;106177;1270;137422;-75
2022/04/01 10:52:29;;;;;;;5.70;4.20;;;;;;;1.67;62.07;98700.71;107762;1270;139073;-73
2022/04/01 10:55:18;;;;;;;10.20;5.20;;;;;;;1.65;62.37;98699.56;106563;1270;97818;-74
2022/04/01 10:57:51;;;;;;;9.80;4.60;;;;;;;1.67;62.60;98697.97;107750;1270;138617;-73
2022/04/01 11:00:24;;;;;;;10.90;4.60;;;;;;;1.64;62.98;98693.41;107832;1270;108547;-73
2022/04/01 11:03:24;;;;;;;11.40;4.50;;;;;;;1.57;62.26;98696.63;107715;1269;138956;-73
2022/04/01 11:06:23;;;;;;;9.30;3.90;;;;;;;1.57;62.89;98692.35;107768;1270;96241;-74
2022/04/01 11:08:56;;;;;;;13.50;4.60;;;;;;;1.59;62.89;98702.73;106418;1269;137799;-73
2022/04/01 11:11:35;;;;;;;11.30;4.50;;;;;;;1.55;62.92;98694.79;106226;1270;110943;-74
2022/04/01 11:14:08;;;;;;;8.10;4.90;;;;;;;1.54;62.98;98697.55;106280;1270;108853;-73
2022/04/01 11:16:50;;;;;;;11.30;4.60;;;;;;;1.52;62.97;98689.21;106222;1270;137163;-73
2022/04/01 11:19:26;;;;;;;9.90;4.70;;;;;;;1.52;63.19;98692.12;106195;1270;97864;-74
2022/04/01 11:21:58;;;;;;;13.00;5.20;;;;;;;1.56;63.67;98698.70;106155;1270;137286;-74
2022/04/01 11:24:38;;;;;;;9.60;6.00;;;;;;;1.61;63.66;98697.57;106318;1270;112925;-75
2022/04/01 11:27:25;;;;;;;16.40;6.40;;;;;;;1.69;64.01;98694.84;107766;1269;137531;-74
2022/04/01 11:30:12;;;;;;;7.10;4.30;;;;;;;1.74;64.13;98697.98;106653;1270;108919;-75
2022/04/01 11:32:46;;;;;;;13.80;4.80;;;;;;;1.71;64.01;98698.05;107630;1270;138945;-73
2022/04/01 11:35:21;;;;;;;7.70;4.70;;;;;;;1.66;63.89;98697.83;107912;1270;95940;-73
2022/04/01 11:37:54;;;;;;;13.90;5.00;;;;;;;1.66;64.16;98700.73;107871;1270;112450;-75
2022/04/01 11:40:29;;;;;;;13.60;4.90;;;;;;;1.65;64.10;98701.27;107699;1270;138093;-72
2022/04/01 11:43:04;;;;;;;10.80;4.80;;;;;;;1.67;64.36;98696.77;107779;1270;109206;-72
2022/04/01 11:45:38;;;;;;;10.00;5.00;;;;;;;1.66;64.45;98695.09;107752;1269;137886;-72
2022/04/01 11:48:17;;;;;;;9.10;4.60;;;;;;;1.68;64.29;98698.30;106682;1270;97932;-71
2022/04/01 11:50:54;;;;;;;11.70;5.10;;;;;;;1.71;64.32;98697.89;106247;1270;137433;-71
2022/04/01 11:53:29;;;;;;;12.80;5.40;;;;;;;1.68;64.44;98696.56;107544;1270;109122;-74
2022/04/01 11:56:03;;;;;;;7.90;5.00;;;;;;;1.63;64.30;98701.14;106287;1270;108930;-72
2022/04/01 11:58:50;;;;;;;10.80;4.80;;;;;;;1.60;64.76;98702.90;107646;1270;138359;-72
2022/04/01 12:01:24;;;;;;;14.20;5.10;;;;;;;1.57;64.86;98697.83;107884;1270;96234;-71
2022/04/01 12:04:09;;;;;;;13.30;4.70;;;;;;;1.52;65.03;98700.52;107570;1270;139353;-71
2022/04/01 12:09:34;;;;;;;12.00;4.70;;;;;;;1.52;64.99;98705.30;107354;1270;138677;-72
2022/04/01 12:12:08;;;;;;;11.50;4.80;;;;;;;1.50;65.05;98708.27;106569;1270;98352;-72
2022/04/01 12:14:43;;;;;;;12.80;4.90;;;;;;;1.49;64.87;98710.86;107742;1269;138268;-72
2022/04/01 12:17:15;;;;;;;9.50;4.90;;;;;;;1.54;65.42;98708.34;107902;1270;112417;-72
2022/04/01 12:19:49;;;;;;;13.40;4.90;;;;;;;1.55;65.32;98708.33;107889;1270;109111;-72
2022/04/01 12:22:25;;;;;;;10.20;5.30;;;;;;;1.57;65.03;98710.34;107737;1270;137721;-72
2022/04/01 12:24:57;;;;;;;12.20;5.20;;;;;;;1.60;65.19;98716.95;107860;1270;96403;-72